sensor_id;sensor_type;location;lat;lon;timestamp;P1;durP1;ratioP1;P2;durP2;ratioP2
42420;SDS011;28063;48.140;11.588;2023-04-24T00:00:22;0.30;;;0.30;;
42420;SDS011;28063;48.140;11.588;2023-04-24T00:02:48;0.65;;;0.30;;
42420;SDS011;28063;48.140;11.588;2023-04-24T00:05:15;0.40;;;0.40;;
42420;SDS011;28063;48.140;11.588;2023-04-24T00:07:42;0.20;;;0.20;;
42420;SDS011;28063;48.140;11.588;2023-04-24T00:10:09;0.30;;;0.30;;
42420;SDS011;28063;48.140;11.588;2023-04-24T00:12:35;0.15;;;0.15;;
42420;SDS011;28063;48.140;11.588;2023-04-24T00:15:01;0.20;;;0.17;;
42420;SDS011;28063;48.140;11.588;2023-04-24T00:17:27;0.30;;;0.25;;
42420;SDS011;28063;48.140;11.588;2023-04-24T00:19:53;0.20;;;0.20;;
42420;SDS011;28063;48.140;11.588;2023-04-24T00:22:25;0.20;;;0.20;;
42420;SDS011;28063;48.140;11.588;2023-04-24T00:24:52;0.17;;;0.17;;
42420;SDS011;28063;48.140;11.588;2023-04-24T00:27:18;0.20;;;0.20;;
42420;SDS011;28063;48.140;11.588;2023-04-24T00:29:44;0.40;;;0.30;;
42420;SDS011;28063;48.140;11.588;2023-04-24T00:32:09;0.43;;;0.30;;
42420;SDS011;28063;48.140;11.588;2023-04-24T00:34:35;0.75;;;0.20;;
42420;SDS011;28063;48.140;11.588;2023-04-24T00:37:01;0.52;;;0.38;;
42420;SDS011;28063;48.140;11.588;2023-04-24T00:39:27;0.30;;;0.30;;
42420;SDS011;28063;48.140;11.588;2023-04-24T00:41:52;0.20;;;0.20;;
42420;SDS011;28063;48.140;11.588;2023-04-24T00:44:18;0.20;;;0.20;;
42420;SDS011;28063;48.140;11.588;2023-04-24T00:46:44;1.02;;;0.32;;
42420;SDS011;28063;48.140;11.588;2023-04-24T00:49:12;0.20;;;0.20;;
42420;SDS011;28063;48.140;11.588;2023-04-24T00:51:39;0.75;;;0.40;;
42420;SDS011;28063;48.140;11.588;2023-04-24T00:54:05;0.20;;;0.20;;
42420;SDS011;28063;48.140;11.588;2023-04-24T00:56:31;0.25;;;0.20;;
42420;SDS011;28063;48.140;11.588;2023-04-24T00:58:57;0.25;;;0.20;;
42420;SDS011;28063;48.140;11.588;2023-04-24T01:01:23;0.30;;;0.30;;
42420;SDS011;28063;48.140;11.588;2023-04-24T01:03:49;0.25;;;0.20;;
42420;SDS011;28063;48.140;11.588;2023-04-24T01:06:16;0.25;;;0.25;;
42420;SDS011;28063;48.140;11.588;2023-04-24T01:08:43;0.20;;;0.17;;
42420;SDS011;28063;48.140;11.588;2023-04-24T01:11:10;0.32;;;0.32;;
42420;SDS011;28063;48.140;11.588;2023-04-24T01:13:36;0.28;;;0.28;;
42420;SDS011;28063;48.140;11.588;2023-04-24T01:16:02;0.30;;;0.30;;
42420;SDS011;28063;48.140;11.588;2023-04-24T01:18:30;0.38;;;0.38;;
42420;SDS011;28063;48.140;11.588;2023-04-24T01:20:58;0.10;;;0.10;;
42420;SDS011;28063;48.140;11.588;2023-04-24T01:23:24;0.60;;;0.32;;
42420;SDS011;28063;48.140;11.588;2023-04-24T01:25:51;0.32;;;0.22;;
42420;SDS011;28063;48.140;11.588;2023-04-24T01:28:17;0.20;;;0.20;;
42420;SDS011;28063;48.140;11.588;2023-04-24T01:30:43;0.10;;;0.10;;
42420;SDS011;28063;48.140;11.588;2023-04-24T01:33:09;0.60;;;0.20;;
42420;SDS011;28063;48.140;11.588;2023-04-24T01:35:35;0.10;;;0.10;;
42420;SDS011;28063;48.140;11.588;2023-04-24T01:38:02;0.20;;;0.20;;
42420;SDS011;28063;48.140;11.588;2023-04-24T01:40:28;0.22;;;0.20;;
42420;SDS011;28063;48.140;11.588;2023-04-24T01:42:54;0.17;;;0.17;;
42420;SDS011;28063;48.140;11.588;2023-04-24T01:45:20;0.25;;;0.25;;
42420;SDS011;28063;48.140;11.588;2023-04-24T01:47:46;0.43;;;0.25;;
42420;SDS011;28063;48.140;11.588;2023-04-24T01:50:12;2.25;;;0.30;;
42420;SDS011;28063;48.140;11.588;2023-04-24T01:52:41;0.17;;;0.17;;
42420;SDS011;28063;48.140;11.588;2023-04-24T01:55:07;0.20;;;0.20;;
42420;SDS011;28063;48.140;11.588;2023-04-24T01:57:33;0.20;;;0.20;;
42420;SDS011;28063;48.140;11.588;2023-04-24T01:59:59;0.10;;;0.10;;
42420;SDS011;28063;48.140;11.588;2023-04-24T02:02:25;0.20;;;0.20;;
42420;SDS011;28063;48.140;11.588;2023-04-24T02:04:54;0.30;;;0.30;;
42420;SDS011;28063;48.140;11.588;2023-04-24T02:07:20;0.20;;;0.20;;
42420;SDS011;28063;48.140;11.588;2023-04-24T02:09:46;0.32;;;0.13;;
42420;SDS011;28063;48.140;11.588;2023-04-24T02:12:12;0.28;;;0.20;;
42420;SDS011;28063;48.140;11.588;2023-04-24T02:14:41;0.20;;;0.20;;
42420;SDS011;28063;48.140;11.588;2023-04-24T02:17:09;0.10;;;0.10;;
42420;SDS011;28063;48.140;11.588;2023-04-24T02:19:37;0.20;;;0.10;;
42420;SDS011;28063;48.140;11.588;2023-04-24T02:22:02;0.20;;;0.20;;
42420;SDS011;28063;48.140;11.588;2023-04-24T02:24:28;0.20;;;0.20;;
42420;SDS011;28063;48.140;11.588;2023-04-24T02:26:54;0.10;;;0.10;;
42420;SDS011;28063;48.140;11.588;2023-04-24T02:29:19;0.28;;;0.10;;
42420;SDS011;28063;48.140;11.588;2023-04-24T02:31:45;0.20;;;0.20;;
42420;SDS011;28063;48.140;11.588;2023-04-24T02:34:10;0.52;;;0.30;;
42420;SDS011;28063;48.140;11.588;2023-04-24T02:36:36;0.20;;;0.20;;
42420;SDS011;28063;48.140;11.588;2023-04-24T02:39:02;0.75;;;0.15;;
42420;SDS011;28063;48.140;11.588;2023-04-24T02:41:28;0.22;;;0.10;;
42420;SDS011;28063;48.140;11.588;2023-04-24T02:43:57;0.20;;;0.20;;
42420;SDS011;28063;48.140;11.588;2023-04-24T02:46:23;0.17;;;0.08;;
42420;SDS011;28063;48.140;11.588;2023-04-24T02:48:49;0.13;;;0.13;;
42420;SDS011;28063;48.140;11.588;2023-04-24T02:51:15;0.35;;;0.20;;
42420;SDS011;28063;48.140;11.588;2023-04-24T02:53:40;0.20;;;0.20;;
42420;SDS011;28063;48.140;11.588;2023-04-24T02:56:06;0.20;;;0.20;;
42420;SDS011;28063;48.140;11.588;2023-04-24T02:58:32;0.35;;;0.10;;
42420;SDS011;28063;48.140;11.588;2023-04-24T03:00:57;0.20;;;0.20;;
42420;SDS011;28063;48.140;11.588;2023-04-24T03:03:23;0.65;;;0.20;;
42420;SDS011;28063;48.140;11.588;2023-04-24T03:05:49;0.40;;;0.40;;
42420;SDS011;28063;48.140;11.588;2023-04-24T03:08:15;0.52;;;0.22;;
42420;SDS011;28063;48.140;11.588;2023-04-24T03:10:41;0.00;;;0.00;;
42420;SDS011;28063;48.140;11.588;2023-04-24T03:13:06;1.48;;;0.40;;
42420;SDS011;28063;48.140;11.588;2023-04-24T03:15:32;0.52;;;0.28;;
42420;SDS011;28063;48.140;11.588;2023-04-24T03:17:58;0.15;;;0.15;;
42420;SDS011;28063;48.140;11.588;2023-04-24T03:20:23;0.15;;;0.10;;
42420;SDS011;28063;48.140;11.588;2023-04-24T03:22:49;0.20;;;0.20;;
42420;SDS011;28063;48.140;11.588;2023-04-24T03:25:15;0.10;;;0.10;;
42420;SDS011;28063;48.140;11.588;2023-04-24T03:27:40;0.52;;;0.28;;
42420;SDS011;28063;48.140;11.588;2023-04-24T03:30:06;0.22;;;0.10;;
42420;SDS011;28063;48.140;11.588;2023-04-24T03:32:32;1.73;;;0.20;;
42420;SDS011;28063;48.140;11.588;2023-04-24T03:34:58;0.43;;;0.13;;
42420;SDS011;28063;48.140;11.588;2023-04-24T03:37:24;0.20;;;0.17;;
42420;SDS011;28063;48.140;11.588;2023-04-24T03:39:51;0.20;;;0.20;;
42420;SDS011;28063;48.140;11.588;2023-04-24T03:42:17;0.13;;;0.00;;
42420;SDS011;28063;48.140;11.588;2023-04-24T03:44:42;0.20;;;0.20;;
42420;SDS011;28063;48.140;11.588;2023-04-24T03:47:08;0.20;;;0.08;;
42420;SDS011;28063;48.140;11.588;2023-04-24T03:49:34;0.47;;;0.30;;
42420;SDS011;28063;48.140;11.588;2023-04-24T03:52:00;0.55;;;0.20;;
42420;SDS011;28063;48.140;11.588;2023-04-24T03:54:26;0.45;;;0.40;;
42420;SDS011;28063;48.140;11.588;2023-04-24T03:56:52;0.20;;;0.20;;
42420;SDS011;28063;48.140;11.588;2023-04-24T03:59:17;0.30;;;0.10;;
42420;SDS011;28063;48.140;11.588;2023-04-24T04:01:43;0.30;;;0.10;;
42420;SDS011;28063;48.140;11.588;2023-04-24T04:04:10;0.25;;;0.17;;
42420;SDS011;28063;48.140;11.588;2023-04-24T04:06:36;0.15;;;0.15;;
42420;SDS011;28063;48.140;11.588;2023-04-24T04:09:02;0.30;;;0.30;;
42420;SDS011;28063;48.140;11.588;2023-04-24T04:11:28;0.20;;;0.10;;
42420;SDS011;28063;48.140;11.588;2023-04-24T04:13:54;0.20;;;0.20;;
42420;SDS011;28063;48.140;11.588;2023-04-24T04:16:19;0.43;;;0.17;;
42420;SDS011;28063;48.140;11.588;2023-04-24T04:18:45;0.17;;;0.17;;
42420;SDS011;28063;48.140;11.588;2023-04-24T04:21:11;0.38;;;0.10;;
42420;SDS011;28063;48.140;11.588;2023-04-24T04:23:37;0.13;;;0.13;;
42420;SDS011;28063;48.140;11.588;2023-04-24T04:26:03;0.10;;;0.10;;
42420;SDS011;28063;48.140;11.588;2023-04-24T04:28:30;0.20;;;0.20;;
42420;SDS011;28063;48.140;11.588;2023-04-24T04:30:56;0.20;;;0.20;;
42420;SDS011;28063;48.140;11.588;2023-04-24T04:33:23;0.10;;;0.10;;
42420;SDS011;28063;48.140;11.588;2023-04-24T04:35:49;0.15;;;0.15;;
42420;SDS011;28063;48.140;11.588;2023-04-24T04:38:19;0.20;;;0.20;;
42420;SDS011;28063;48.140;11.588;2023-04-24T04:40:45;0.50;;;0.20;;
42420;SDS011;28063;48.140;11.588;2023-04-24T04:43:11;0.57;;;0.40;;
42420;SDS011;28063;48.140;11.588;2023-04-24T04:45:38;0.20;;;0.20;;
42420;SDS011;28063;48.140;11.588;2023-04-24T04:48:06;0.10;;;0.10;;
42420;SDS011;28063;48.140;11.588;2023-04-24T04:50:37;0.57;;;0.20;;
42420;SDS011;28063;48.140;11.588;2023-04-24T04:53:03;0.52;;;0.10;;
42420;SDS011;28063;48.140;11.588;2023-04-24T04:55:29;0.20;;;0.20;;
42420;SDS011;28063;48.140;11.588;2023-04-24T04:57:55;0.45;;;0.20;;
42420;SDS011;28063;48.140;11.588;2023-04-24T05:00:21;0.28;;;0.10;;
42420;SDS011;28063;48.140;11.588;2023-04-24T05:02:50;0.10;;;0.10;;
42420;SDS011;28063;48.140;11.588;2023-04-24T05:05:16;0.10;;;0.10;;
42420;SDS011;28063;48.140;11.588;2023-04-24T05:07:42;0.20;;;0.20;;
42420;SDS011;28063;48.140;11.588;2023-04-24T05:10:08;0.20;;;0.20;;
42420;SDS011;28063;48.140;11.588;2023-04-24T05:12:34;0.20;;;0.20;;
42420;SDS011;28063;48.140;11.588;2023-04-24T05:15:00;0.10;;;0.10;;
42420;SDS011;28063;48.140;11.588;2023-04-24T05:17:25;0.10;;;0.10;;
42420;SDS011;28063;48.140;11.588;2023-04-24T05:19:51;0.50;;;0.25;;
42420;SDS011;28063;48.140;11.588;2023-04-24T05:22:18;0.28;;;0.15;;
42420;SDS011;28063;48.140;11.588;2023-04-24T05:24:45;0.75;;;0.30;;
42420;SDS011;28063;48.140;11.588;2023-04-24T05:27:12;0.45;;;0.30;;
42420;SDS011;28063;48.140;11.588;2023-04-24T05:29:37;1.00;;;0.15;;
42420;SDS011;28063;48.140;11.588;2023-04-24T05:32:03;0.28;;;0.20;;
42420;SDS011;28063;48.140;11.588;2023-04-24T05:34:29;0.20;;;0.20;;
42420;SDS011;28063;48.140;11.588;2023-04-24T05:36:55;0.88;;;0.40;;
42420;SDS011;28063;48.140;11.588;2023-04-24T05:39:21;0.20;;;0.20;;
42420;SDS011;28063;48.140;11.588;2023-04-24T05:41:46;0.70;;;0.20;;
42420;SDS011;28063;48.140;11.588;2023-04-24T05:44:12;0.20;;;0.20;;
42420;SDS011;28063;48.140;11.588;2023-04-24T05:46:37;1.27;;;0.50;;
42420;SDS011;28063;48.140;11.588;2023-04-24T05:49:04;0.30;;;0.28;;
42420;SDS011;28063;48.140;11.588;2023-04-24T05:51:32;0.28;;;0.28;;
42420;SDS011;28063;48.140;11.588;2023-04-24T05:53:58;0.20;;;0.20;;
42420;SDS011;28063;48.140;11.588;2023-04-24T05:56:24;0.10;;;0.10;;
42420;SDS011;28063;48.140;11.588;2023-04-24T05:58:50;0.15;;;0.15;;
42420;SDS011;28063;48.140;11.588;2023-04-24T06:01:15;0.20;;;0.20;;
42420;SDS011;28063;48.140;11.588;2023-04-24T06:03:41;0.20;;;0.10;;
42420;SDS011;28063;48.140;11.588;2023-04-24T06:06:07;0.55;;;0.20;;
42420;SDS011;28063;48.140;11.588;2023-04-24T06:08:34;0.68;;;0.40;;
42420;SDS011;28063;48.140;11.588;2023-04-24T06:11:00;0.20;;;0.20;;
42420;SDS011;28063;48.140;11.588;2023-04-24T06:13:26;0.77;;;0.40;;
42420;SDS011;28063;48.140;11.588;2023-04-24T06:15:52;0.30;;;0.30;;
42420;SDS011;28063;48.140;11.588;2023-04-24T06:18:17;1.27;;;0.30;;
42420;SDS011;28063;48.140;11.588;2023-04-24T06:20:44;0.55;;;0.30;;
42420;SDS011;28063;48.140;11.588;2023-04-24T06:23:11;0.20;;;0.20;;
42420;SDS011;28063;48.140;11.588;2023-04-24T06:25:36;0.30;;;0.30;;
42420;SDS011;28063;48.140;11.588;2023-04-24T06:28:03;0.57;;;0.20;;
42420;SDS011;28063;48.140;11.588;2023-04-24T06:30:28;0.52;;;0.20;;
42420;SDS011;28063;48.140;11.588;2023-04-24T06:32:54;0.20;;;0.20;;
42420;SDS011;28063;48.140;11.588;2023-04-24T06:35:20;0.10;;;0.10;;
42420;SDS011;28063;48.140;11.588;2023-04-24T06:37:46;0.45;;;0.20;;
42420;SDS011;28063;48.140;11.588;2023-04-24T06:40:12;0.08;;;0.08;;
42420;SDS011;28063;48.140;11.588;2023-04-24T06:42:37;1.70;;;0.30;;
42420;SDS011;28063;48.140;11.588;2023-04-24T06:45:03;0.57;;;0.50;;
42420;SDS011;28063;48.140;11.588;2023-04-24T06:47:30;0.20;;;0.20;;
42420;SDS011;28063;48.140;11.588;2023-04-24T06:49:56;0.85;;;0.20;;
42420;SDS011;28063;48.140;11.588;2023-04-24T06:52:22;0.45;;;0.20;;
42420;SDS011;28063;48.140;11.588;2023-04-24T06:54:51;0.38;;;0.20;;
42420;SDS011;28063;48.140;11.588;2023-04-24T06:57:17;0.65;;;0.20;;
42420;SDS011;28063;48.140;11.588;2023-04-24T06:59:43;0.10;;;0.10;;
42420;SDS011;28063;48.140;11.588;2023-04-24T07:02:09;0.22;;;0.15;;
42420;SDS011;28063;48.140;11.588;2023-04-24T07:04:34;0.17;;;0.15;;
42420;SDS011;28063;48.140;11.588;2023-04-24T07:07:00;0.17;;;0.17;;
42420;SDS011;28063;48.140;11.588;2023-04-24T07:09:26;0.80;;;0.32;;
42420;SDS011;28063;48.140;11.588;2023-04-24T07:11:52;0.13;;;0.10;;
42420;SDS011;28063;48.140;11.588;2023-04-24T07:14:18;0.40;;;0.20;;
42420;SDS011;28063;48.140;11.588;2023-04-24T07:16:45;0.20;;;0.20;;
42420;SDS011;28063;48.140;11.588;2023-04-24T07:19:12;0.28;;;0.28;;
42420;SDS011;28063;48.140;11.588;2023-04-24T07:21:38;0.90;;;0.40;;
42420;SDS011;28063;48.140;11.588;2023-04-24T07:24:04;0.10;;;0.10;;
42420;SDS011;28063;48.140;11.588;2023-04-24T07:26:30;0.17;;;0.17;;
42420;SDS011;28063;48.140;11.588;2023-04-24T07:28:56;0.20;;;0.20;;
42420;SDS011;28063;48.140;11.588;2023-04-24T07:31:21;0.10;;;0.10;;
42420;SDS011;28063;48.140;11.588;2023-04-24T07:33:47;1.65;;;0.45;;
42420;SDS011;28063;48.140;11.588;2023-04-24T07:36:13;0.70;;;0.32;;
42420;SDS011;28063;48.140;11.588;2023-04-24T07:38:44;0.28;;;0.28;;
42420;SDS011;28063;48.140;11.588;2023-04-24T07:41:10;0.70;;;0.30;;
42420;SDS011;28063;48.140;11.588;2023-04-24T07:43:36;0.30;;;0.20;;
42420;SDS011;28063;48.140;11.588;2023-04-24T07:46:02;0.93;;;0.30;;
42420;SDS011;28063;48.140;11.588;2023-04-24T07:48:27;1.00;;;0.40;;
42420;SDS011;28063;48.140;11.588;2023-04-24T07:50:53;0.20;;;0.20;;
42420;SDS011;28063;48.140;11.588;2023-04-24T07:53:19;2.45;;;0.55;;
42420;SDS011;28063;48.140;11.588;2023-04-24T07:55:45;0.70;;;0.25;;
42420;SDS011;28063;48.140;11.588;2023-04-24T07:58:11;0.45;;;0.20;;
42420;SDS011;28063;48.140;11.588;2023-04-24T08:00:37;0.13;;;0.10;;
42420;SDS011;28063;48.140;11.588;2023-04-24T08:03:02;0.20;;;0.20;;
42420;SDS011;28063;48.140;11.588;2023-04-24T08:05:28;0.20;;;0.20;;
42420;SDS011;28063;48.140;11.588;2023-04-24T08:07:54;0.20;;;0.20;;
42420;SDS011;28063;48.140;11.588;2023-04-24T08:10:21;0.10;;;0.10;;
42420;SDS011;28063;48.140;11.588;2023-04-24T08:12:47;0.25;;;0.20;;
42420;SDS011;28063;48.140;11.588;2023-04-24T08:15:13;0.30;;;0.20;;
42420;SDS011;28063;48.140;11.588;2023-04-24T08:17:38;0.30;;;0.22;;
42420;SDS011;28063;48.140;11.588;2023-04-24T08:20:04;1.80;;;0.40;;
42420;SDS011;28063;48.140;11.588;2023-04-24T08:22:31;0.65;;;0.20;;
42420;SDS011;28063;48.140;11.588;2023-04-24T08:24:57;0.20;;;0.20;;
42420;SDS011;28063;48.140;11.588;2023-04-24T08:27:24;1.85;;;0.20;;
42420;SDS011;28063;48.140;11.588;2023-04-24T08:29:52;0.47;;;0.47;;
42420;SDS011;28063;48.140;11.588;2023-04-24T08:32:18;0.38;;;0.38;;
42420;SDS011;28063;48.140;11.588;2023-04-24T08:34:44;0.95;;;0.40;;
42420;SDS011;28063;48.140;11.588;2023-04-24T08:37:10;1.02;;;0.32;;
42420;SDS011;28063;48.140;11.588;2023-04-24T08:39:36;0.30;;;0.20;;
42420;SDS011;28063;48.140;11.588;2023-04-24T08:42:02;0.30;;;0.30;;
42420;SDS011;28063;48.140;11.588;2023-04-24T08:44:32;0.82;;;0.20;;
42420;SDS011;28063;48.140;11.588;2023-04-24T08:46:59;1.35;;;0.50;;
42420;SDS011;28063;48.140;11.588;2023-04-24T08:49:26;0.22;;;0.22;;
42420;SDS011;28063;48.140;11.588;2023-04-24T08:51:54;1.13;;;0.43;;
42420;SDS011;28063;48.140;11.588;2023-04-24T08:54:20;1.23;;;0.68;;
42420;SDS011;28063;48.140;11.588;2023-04-24T08:56:47;0.80;;;0.60;;
42420;SDS011;28063;48.140;11.588;2023-04-24T08:59:16;1.63;;;0.60;;
42420;SDS011;28063;48.140;11.588;2023-04-24T09:01:42;2.00;;;0.60;;
42420;SDS011;28063;48.140;11.588;2023-04-24T09:04:12;1.40;;;0.80;;
42420;SDS011;28063;48.140;11.588;2023-04-24T09:06:40;0.40;;;0.40;;
42420;SDS011;28063;48.140;11.588;2023-04-24T09:09:06;2.25;;;0.90;;
42420;SDS011;28063;48.140;11.588;2023-04-24T09:11:33;1.35;;;0.60;;
42420;SDS011;28063;48.140;11.588;2023-04-24T09:13:59;2.45;;;0.60;;
42420;SDS011;28063;48.140;11.588;2023-04-24T09:16:25;1.63;;;0.47;;
42420;SDS011;28063;48.140;11.588;2023-04-24T09:18:51;1.60;;;0.73;;
42420;SDS011;28063;48.140;11.588;2023-04-24T09:21:18;1.98;;;0.40;;
42420;SDS011;28063;48.140;11.588;2023-04-24T09:23:46;0.45;;;0.45;;
42420;SDS011;28063;48.140;11.588;2023-04-24T09:26:13;1.38;;;0.63;;
42420;SDS011;28063;48.140;11.588;2023-04-24T09:28:40;0.55;;;0.50;;
42420;SDS011;28063;48.140;11.588;2023-04-24T09:33:33;0.98;;;0.47;;
42420;SDS011;28063;48.140;11.588;2023-04-24T09:35:59;1.98;;;0.45;;
42420;SDS011;28063;48.140;11.588;2023-04-24T09:38:37;1.38;;;0.60;;
42420;SDS011;28063;48.140;11.588;2023-04-24T09:41:07;1.02;;;0.70;;
42420;SDS011;28063;48.140;11.588;2023-04-24T09:43:33;1.67;;;0.68;;
42420;SDS011;28063;48.140;11.588;2023-04-24T09:46:04;1.88;;;0.70;;
42420;SDS011;28063;48.140;11.588;2023-04-24T09:48:32;1.40;;;0.50;;
42420;SDS011;28063;48.140;11.588;2023-04-24T09:51:00;1.25;;;0.60;;
42420;SDS011;28063;48.140;11.588;2023-04-24T09:53:26;2.22;;;0.80;;
42420;SDS011;28063;48.140;11.588;2023-04-24T09:55:52;0.68;;;0.68;;
42420;SDS011;28063;48.140;11.588;2023-04-24T09:58:24;1.98;;;1.23;;
42420;SDS011;28063;48.140;11.588;2023-04-24T10:00:53;1.00;;;0.65;;
42420;SDS011;28063;48.140;11.588;2023-04-24T10:03:20;0.60;;;0.60;;
42420;SDS011;28063;48.140;11.588;2023-04-24T10:05:46;0.43;;;0.43;;
42420;SDS011;28063;48.140;11.588;2023-04-24T10:08:12;1.63;;;0.40;;
42420;SDS011;28063;48.140;11.588;2023-04-24T10:10:39;1.38;;;0.70;;
42420;SDS011;28063;48.140;11.588;2023-04-24T10:13:07;0.50;;;0.50;;
42420;SDS011;28063;48.140;11.588;2023-04-24T10:15:35;1.33;;;0.70;;
42420;SDS011;28063;48.140;11.588;2023-04-24T10:18:01;0.82;;;0.75;;
42420;SDS011;28063;48.140;11.588;2023-04-24T10:20:29;0.95;;;0.60;;
42420;SDS011;28063;48.140;11.588;2023-04-24T10:22:56;1.55;;;0.80;;
42420;SDS011;28063;48.140;11.588;2023-04-24T10:25:24;1.13;;;0.70;;
42420;SDS011;28063;48.140;11.588;2023-04-24T10:27:51;0.65;;;0.60;;
42420;SDS011;28063;48.140;11.588;2023-04-24T10:30:18;0.98;;;0.70;;
42420;SDS011;28063;48.140;11.588;2023-04-24T10:32:45;0.82;;;0.60;;
42420;SDS011;28063;48.140;11.588;2023-04-24T10:35:12;1.08;;;0.50;;
42420;SDS011;28063;48.140;11.588;2023-04-24T10:37:40;1.95;;;0.68;;
42420;SDS011;28063;48.140;11.588;2023-04-24T10:40:11;2.08;;;1.20;;
42420;SDS011;28063;48.140;11.588;2023-04-24T10:42:42;0.82;;;0.50;;
42420;SDS011;28063;48.140;11.588;2023-04-24T10:45:18;1.10;;;0.80;;
42420;SDS011;28063;48.140;11.588;2023-04-24T10:47:59;1.00;;;0.82;;
42420;SDS011;28063;48.140;11.588;2023-04-24T10:50:27;0.77;;;0.77;;
42420;SDS011;28063;48.140;11.588;2023-04-24T10:53:04;1.92;;;0.63;;
42420;SDS011;28063;48.140;11.588;2023-04-24T10:58:37;0.60;;;0.60;;
42420;SDS011;28063;48.140;11.588;2023-04-24T11:01:11;3.05;;;0.70;;
42420;SDS011;28063;48.140;11.588;2023-04-24T11:03:50;1.95;;;0.80;;
42420;SDS011;28063;48.140;11.588;2023-04-24T11:06:19;0.45;;;0.40;;
42420;SDS011;28063;48.140;11.588;2023-04-24T11:11:30;2.17;;;0.60;;
42420;SDS011;28063;48.140;11.588;2023-04-24T11:16:29;1.90;;;0.60;;
42420;SDS011;28063;48.140;11.588;2023-04-24T11:30:05;0.50;;;0.50;;
42420;SDS011;28063;48.140;11.588;2023-04-24T11:35:15;2.10;;;0.60;;
42420;SDS011;28063;48.140;11.588;2023-04-24T11:37:42;0.57;;;0.57;;
42420;SDS011;28063;48.140;11.588;2023-04-24T11:40:14;1.42;;;0.80;;
42420;SDS011;28063;48.140;11.588;2023-04-24T11:42:41;1.90;;;0.90;;
42420;SDS011;28063;48.140;11.588;2023-04-24T11:45:15;2.08;;;0.70;;
42420;SDS011;28063;48.140;11.588;2023-04-24T11:47:43;3.00;;;0.80;;
42420;SDS011;28063;48.140;11.588;2023-04-24T11:50:11;2.75;;;0.60;;
42420;SDS011;28063;48.140;11.588;2023-04-24T11:52:39;0.90;;;0.63;;
42420;SDS011;28063;48.140;11.588;2023-04-24T11:55:22;0.85;;;0.60;;
42420;SDS011;28063;48.140;11.588;2023-04-24T11:57:52;1.27;;;0.50;;
42420;SDS011;28063;48.140;11.588;2023-04-24T12:00:25;1.13;;;0.50;;
42420;SDS011;28063;48.140;11.588;2023-04-24T12:03:03;0.50;;;0.50;;
42420;SDS011;28063;48.140;11.588;2023-04-24T12:05:36;1.52;;;0.80;;
42420;SDS011;28063;48.140;11.588;2023-04-24T12:08:03;1.23;;;0.55;;
42420;SDS011;28063;48.140;11.588;2023-04-24T12:10:30;0.43;;;0.43;;
42420;SDS011;28063;48.140;11.588;2023-04-24T12:12:57;0.98;;;0.50;;
42420;SDS011;28063;48.140;11.588;2023-04-24T12:15:23;0.60;;;0.60;;
42420;SDS011;28063;48.140;11.588;2023-04-24T12:17:52;0.73;;;0.65;;
42420;SDS011;28063;48.140;11.588;2023-04-24T12:20:29;1.30;;;0.52;;
42420;SDS011;28063;48.140;11.588;2023-04-24T12:22:56;0.85;;;0.57;;
42420;SDS011;28063;48.140;11.588;2023-04-24T12:25:24;1.38;;;0.50;;
42420;SDS011;28063;48.140;11.588;2023-04-24T12:30:30;1.23;;;0.88;;
42420;SDS011;28063;48.140;11.588;2023-04-24T12:32:58;0.90;;;0.68;;
42420;SDS011;28063;48.140;11.588;2023-04-24T12:35:26;0.82;;;0.82;;
42420;SDS011;28063;48.140;11.588;2023-04-24T12:37:54;1.55;;;0.70;;
42420;SDS011;28063;48.140;11.588;2023-04-24T12:40:20;0.88;;;0.70;;
42420;SDS011;28063;48.140;11.588;2023-04-24T12:42:50;3.55;;;0.90;;
42420;SDS011;28063;48.140;11.588;2023-04-24T12:45:17;0.65;;;0.65;;
42420;SDS011;28063;48.140;11.588;2023-04-24T12:47:45;0.50;;;0.50;;
42420;SDS011;28063;48.140;11.588;2023-04-24T12:50:14;0.70;;;0.70;;
42420;SDS011;28063;48.140;11.588;2023-04-24T12:52:41;1.40;;;0.70;;
42420;SDS011;28063;48.140;11.588;2023-04-24T12:55:07;4.70;;;0.88;;
42420;SDS011;28063;48.140;11.588;2023-04-24T12:57:34;1.48;;;0.93;;
42420;SDS011;28063;48.140;11.588;2023-04-24T13:00:02;0.63;;;0.50;;
42420;SDS011;28063;48.140;11.588;2023-04-24T13:02:28;0.70;;;0.60;;
42420;SDS011;28063;48.140;11.588;2023-04-24T13:04:58;0.63;;;0.52;;
42420;SDS011;28063;48.140;11.588;2023-04-24T13:07:24;0.80;;;0.77;;
42420;SDS011;28063;48.140;11.588;2023-04-24T13:09:50;2.00;;;0.70;;
42420;SDS011;28063;48.140;11.588;2023-04-24T13:12:17;1.23;;;0.70;;
42420;SDS011;28063;48.140;11.588;2023-04-24T13:14:43;0.50;;;0.47;;
42420;SDS011;28063;48.140;11.588;2023-04-24T13:17:09;1.10;;;1.05;;
42420;SDS011;28063;48.140;11.588;2023-04-24T13:19:37;2.05;;;0.55;;
42420;SDS011;28063;48.140;11.588;2023-04-24T13:22:03;2.95;;;1.25;;
42420;SDS011;28063;48.140;11.588;2023-04-24T13:24:29;1.67;;;0.68;;
42420;SDS011;28063;48.140;11.588;2023-04-24T13:26:56;3.10;;;0.80;;
42420;SDS011;28063;48.140;11.588;2023-04-24T13:29:22;1.17;;;0.80;;
42420;SDS011;28063;48.140;11.588;2023-04-24T13:31:49;2.45;;;0.80;;
42420;SDS011;28063;48.140;11.588;2023-04-24T13:34:16;1.15;;;0.90;;
42420;SDS011;28063;48.140;11.588;2023-04-24T13:36:42;0.90;;;0.80;;
42420;SDS011;28063;48.140;11.588;2023-04-24T13:39:08;2.45;;;0.88;;
42420;SDS011;28063;48.140;11.588;2023-04-24T13:41:34;2.70;;;0.80;;
42420;SDS011;28063;48.140;11.588;2023-04-24T13:44:01;5.40;;;0.98;;
42420;SDS011;28063;48.140;11.588;2023-04-24T13:46:27;1.27;;;0.90;;
42420;SDS011;28063;48.140;11.588;2023-04-24T13:48:53;0.57;;;0.57;;
42420;SDS011;28063;48.140;11.588;2023-04-24T13:51:18;1.05;;;0.80;;
42420;SDS011;28063;48.140;11.588;2023-04-24T13:53:44;2.58;;;1.05;;
42420;SDS011;28063;48.140;11.588;2023-04-24T13:56:10;0.93;;;0.93;;
42420;SDS011;28063;48.140;11.588;2023-04-24T13:58:37;0.93;;;0.70;;
42420;SDS011;28063;48.140;11.588;2023-04-24T14:01:03;1.38;;;0.68;;
42420;SDS011;28063;48.140;11.588;2023-04-24T14:03:29;1.77;;;0.82;;
42420;SDS011;28063;48.140;11.588;2023-04-24T14:05:55;1.00;;;0.63;;
42420;SDS011;28063;48.140;11.588;2023-04-24T14:08:21;4.32;;;1.80;;
42420;SDS011;28063;48.140;11.588;2023-04-24T14:10:47;2.80;;;1.10;;
42420;SDS011;28063;48.140;11.588;2023-04-24T14:13:13;0.73;;;0.55;;
42420;SDS011;28063;48.140;11.588;2023-04-24T14:15:39;1.27;;;0.77;;
42420;SDS011;28063;48.140;11.588;2023-04-24T14:18:05;1.52;;;0.93;;
42420;SDS011;28063;48.140;11.588;2023-04-24T14:20:30;1.48;;;0.68;;
42420;SDS011;28063;48.140;11.588;2023-04-24T14:22:57;2.63;;;0.90;;
42420;SDS011;28063;48.140;11.588;2023-04-24T14:25:25;2.15;;;1.02;;
42420;SDS011;28063;48.140;11.588;2023-04-24T14:27:51;2.17;;;0.85;;
42420;SDS011;28063;48.140;11.588;2023-04-24T14:30:17;0.73;;;0.73;;
42420;SDS011;28063;48.140;11.588;2023-04-24T14:32:43;2.17;;;0.88;;
42420;SDS011;28063;48.140;11.588;2023-04-24T14:35:10;1.25;;;0.63;;
42420;SDS011;28063;48.140;11.588;2023-04-24T14:37:36;1.73;;;0.90;;
42420;SDS011;28063;48.140;11.588;2023-04-24T14:40:02;3.30;;;0.73;;
42420;SDS011;28063;48.140;11.588;2023-04-24T14:42:30;1.02;;;0.80;;
42420;SDS011;28063;48.140;11.588;2023-04-24T14:44:56;2.85;;;0.80;;
42420;SDS011;28063;48.140;11.588;2023-04-24T14:47:21;1.75;;;0.90;;
42420;SDS011;28063;48.140;11.588;2023-04-24T14:49:47;6.70;;;1.20;;
42420;SDS011;28063;48.140;11.588;2023-04-24T14:52:13;1.15;;;1.00;;
42420;SDS011;28063;48.140;11.588;2023-04-24T14:54:39;4.60;;;1.02;;
42420;SDS011;28063;48.140;11.588;2023-04-24T14:57:05;0.90;;;0.75;;